createdAt,value
2022-12-03T00:00:49.000Z,5.40
2022-12-03T00:02:51.443Z,3.90
2022-12-03T00:04:54.423Z,4.00
2022-12-03T00:06:56.993Z,4.00
2022-12-03T00:08:59.469Z,4.10
2022-12-03T00:11:04.249Z,4.10
2022-12-03T00:13:06.579Z,4.60
2022-12-03T00:15:13.231Z,4.10
2022-12-03T00:17:15.932Z,4.20
2022-12-03T00:19:18.239Z,4.20
2022-12-03T00:21:20.560Z,4.20
2022-12-03T00:23:23.132Z,4.20
2022-12-03T00:25:25.844Z,4.30
2022-12-03T00:27:28.247Z,4.30
2022-12-03T00:29:30.677Z,4.30
2022-12-03T00:31:35.748Z,4.30
2022-12-03T00:33:38.175Z,4.30
2022-12-03T00:35:40.521Z,4.80
2022-12-03T00:37:42.930Z,4.30
2022-12-03T00:39:45.303Z,4.40
2022-12-03T00:41:47.674Z,4.30
2022-12-03T00:43:50.921Z,4.30
2022-12-03T00:45:53.241Z,4.30
2022-12-03T00:47:58.369Z,4.30
2022-12-03T00:50:00.656Z,4.20
2022-12-03T00:52:03.049Z,4.20
2022-12-03T00:54:06.062Z,4.20
2022-12-03T00:56:09.024Z,4.20
2022-12-03T00:58:11.387Z,4.20
2022-12-03T01:00:15.440Z,4.20
2022-12-03T01:02:17.918Z,4.20
2022-12-03T01:04:23.071Z,4.20
2022-12-03T01:06:25.464Z,4.90
2022-12-03T01:08:27.785Z,4.20
2022-12-03T01:10:30.260Z,4.20
2022-12-03T01:12:34.981Z,4.20
2022-12-03T01:14:37.455Z,4.10
2022-12-03T01:16:40.693Z,4.20
2022-12-03T01:18:43.144Z,4.20
2022-12-03T01:20:48.494Z,4.20
2022-12-03T01:22:50.988Z,4.30
2022-12-03T01:24:53.598Z,4.90
2022-12-03T01:26:56.874Z,4.20
2022-12-03T01:28:59.243Z,4.20
2022-12-03T01:31:20.034Z,4.20
2022-12-03T01:33:22.502Z,4.20
2022-12-03T01:35:24.894Z,3.70
2022-12-03T01:37:29.930Z,4.20
2022-12-03T01:39:32.302Z,4.20
2022-12-03T01:41:36.080Z,4.10
2022-12-03T01:43:38.713Z,4.10
2022-12-03T01:45:41.879Z,4.10
2022-12-03T01:47:44.393Z,4.10
2022-12-03T01:49:50.073Z,4.00
2022-12-03T01:51:55.343Z,5.10
2022-12-03T01:54:01.998Z,3.90
2022-12-03T01:56:04.566Z,3.90
2022-12-03T01:58:08.119Z,3.90
2022-12-03T02:00:14.502Z,3.90
2022-12-03T02:02:22.174Z,3.90
2022-12-03T02:04:24.770Z,3.80
2022-12-03T02:06:29.921Z,4.70
2022-12-03T02:08:34.097Z,3.90
2022-12-03T02:10:41.792Z,3.90
2022-12-03T02:12:48.648Z,3.90
2022-12-03T02:14:52.475Z,3.90
2022-12-03T02:16:54.987Z,3.80
2022-12-03T02:18:58.335Z,3.90
2022-12-03T02:21:07.476Z,3.80
2022-12-03T02:23:15.951Z,3.90
2022-12-03T02:25:23.216Z,5.30
2022-12-03T02:27:27.168Z,3.90
2022-12-03T02:29:30.043Z,3.90
2022-12-03T02:31:33.278Z,3.90
2022-12-03T02:33:36.676Z,3.90
2022-12-03T02:35:39.857Z,3.90
2022-12-03T02:37:43.812Z,3.90
2022-12-03T02:39:49.743Z,4.90
2022-12-03T02:42:13.564Z,3.90
2022-12-03T02:44:16.023Z,4.00
2022-12-03T02:46:19.436Z,3.90
2022-12-03T02:48:25.655Z,3.90
2022-12-03T02:50:32.376Z,3.90
2022-12-03T02:52:35.014Z,3.90
2022-12-03T02:54:38.278Z,3.90
2022-12-03T02:56:40.716Z,4.60
2022-12-03T02:58:48.709Z,3.90
2022-12-03T03:00:52.968Z,4.70
2022-12-03T03:02:55.274Z,3.90
2022-12-03T03:04:57.905Z,3.90
2022-12-03T03:07:00.281Z,3.90
2022-12-03T03:09:03.730Z,3.90
2022-12-03T03:11:06.454Z,3.90
2022-12-03T03:13:11.247Z,3.90
2022-12-03T03:15:16.529Z,3.90
2022-12-03T03:17:19.120Z,3.90
2022-12-03T03:19:22.430Z,3.90
2022-12-03T03:21:24.792Z,3.80
2022-12-03T03:23:27.271Z,3.90
2022-12-03T03:25:29.733Z,3.80
2022-12-03T03:27:33.356Z,3.80
2022-12-03T03:29:36.266Z,3.80
2022-12-03T03:31:42.535Z,3.80
2022-12-03T03:33:47.273Z,3.60
2022-12-03T03:35:50.881Z,3.70
2022-12-03T03:37:54.699Z,3.70
2022-12-03T03:39:57.217Z,3.20
2022-12-03T03:41:59.577Z,3.60
2022-12-03T03:44:03.929Z,3.60
2022-12-03T03:46:07.033Z,3.60
2022-12-03T03:48:14.037Z,2.30
2022-12-03T03:50:17.348Z,3.60
2022-12-03T03:52:20.149Z,3.60
2022-12-03T03:54:23.228Z,3.60
2022-12-03T03:56:25.588Z,3.60
2022-12-03T03:58:28.127Z,5.30
2022-12-03T04:00:30.809Z,3.60
2022-12-03T04:02:34.106Z,3.60
2022-12-03T04:04:39.117Z,3.60
2022-12-03T04:06:41.678Z,3.60
2022-12-03T04:08:44.084Z,3.60
2022-12-03T04:11:05.324Z,3.60
2022-12-03T04:13:07.751Z,3.60
2022-12-03T04:15:10.590Z,5.20
2022-12-03T04:17:12.992Z,3.50
2022-12-03T04:19:15.470Z,3.50
2022-12-03T04:21:41.596Z,3.70
2022-12-03T04:23:44.226Z,3.60
2022-12-03T04:26:05.210Z,5.00
2022-12-03T04:28:29.488Z,3.50
2022-12-03T04:30:32.107Z,3.50
2022-12-03T04:32:53.130Z,3.50
2022-12-03T04:35:13.985Z,3.50
2022-12-03T04:37:19.483Z,3.50
2022-12-03T04:39:21.858Z,3.50
2022-12-03T04:41:24.172Z,3.50
2022-12-03T04:43:26.895Z,3.50
2022-12-03T04:45:29.248Z,3.50
2022-12-03T04:47:36.818Z,3.60
2022-12-03T04:49:44.344Z,3.50
2022-12-03T04:51:46.725Z,3.50
2022-12-03T04:53:51.843Z,3.40
2022-12-03T04:55:54.257Z,3.40
2022-12-03T04:57:56.693Z,3.50
2022-12-03T04:59:59.087Z,3.50
2022-12-03T05:02:01.602Z,3.40
2022-12-03T05:04:04.520Z,3.40
2022-12-03T05:06:10.069Z,3.40
2022-12-03T05:08:12.887Z,3.40
2022-12-03T05:10:18.179Z,3.40
2022-12-03T05:12:20.496Z,3.40
2022-12-03T05:14:22.951Z,3.40
2022-12-03T05:16:25.461Z,3.50
2022-12-03T05:18:28.378Z,2.70
2022-12-03T05:20:46.962Z,3.50
2022-12-03T05:22:53.865Z,3.50
2022-12-03T05:24:56.733Z,3.40
2022-12-03T05:27:02.075Z,3.50
2022-12-03T05:29:04.552Z,5.00
2022-12-03T05:31:07.368Z,3.40
2022-12-03T05:33:09.844Z,3.40
2022-12-03T05:35:12.506Z,3.40
2022-12-03T05:37:17.526Z,3.40
2022-12-03T05:39:19.976Z,4.50
2022-12-03T05:41:40.947Z,3.40
2022-12-03T05:43:48.941Z,3.40
2022-12-03T05:45:51.443Z,3.40
2022-12-03T05:47:55.073Z,3.40
2022-12-03T05:49:57.893Z,3.40
2022-12-03T05:52:00.325Z,3.40
2022-12-03T05:54:02.702Z,3.30
2022-12-03T05:56:05.994Z,3.40
2022-12-03T05:58:08.642Z,3.40
2022-12-03T06:00:17.807Z,4.10
2022-12-03T06:02:20.584Z,3.30
2022-12-03T06:04:23.070Z,3.30
2022-12-03T06:06:25.377Z,3.30
2022-12-03T06:08:27.797Z,3.30
2022-12-03T06:10:30.383Z,3.30
2022-12-03T06:12:32.721Z,3.40
2022-12-03T06:14:37.707Z,3.30
2022-12-03T06:16:43.086Z,3.40
2022-12-03T06:18:45.370Z,3.40
2022-12-03T06:20:47.792Z,4.10
2022-12-03T06:22:50.252Z,3.30
2022-12-03T06:24:53.103Z,3.30
2022-12-03T06:26:55.809Z,3.20
2022-12-03T06:28:59.583Z,3.30
2022-12-03T06:31:02.003Z,3.10
2022-12-03T06:33:07.485Z,3.20
2022-12-03T06:35:10.247Z,3.40
2022-12-03T06:37:12.626Z,4.50
2022-12-03T06:39:15.031Z,3.40
2022-12-03T06:41:18.569Z,3.40
2022-12-03T06:43:22.227Z,3.90
2022-12-03T06:45:25.111Z,3.30
2022-12-03T06:47:27.795Z,2.30
2022-12-03T06:49:33.159Z,3.30
2022-12-03T06:51:36.618Z,3.30
2022-12-03T06:53:39.195Z,3.40
2022-12-03T06:55:41.863Z,3.40
2022-12-03T06:57:44.330Z,3.30
2022-12-03T06:59:46.847Z,3.30
2022-12-03T07:01:49.856Z,3.30
2022-12-03T07:03:52.369Z,3.30
2022-12-03T07:05:57.506Z,3.30
2022-12-03T07:08:00.185Z,3.30
2022-12-03T07:10:03.249Z,3.30
2022-12-03T07:12:06.211Z,3.40
2022-12-03T07:14:11.144Z,3.30
2022-12-03T07:16:13.757Z,3.30
2022-12-03T07:18:16.721Z,3.30
2022-12-03T07:20:21.109Z,3.60
2022-12-03T07:22:25.778Z,3.30
2022-12-03T07:24:28.223Z,3.30
2022-12-03T07:26:30.698Z,3.20
2022-12-03T07:28:33.090Z,3.20
2022-12-03T07:30:35.635Z,3.20
2022-12-03T07:32:38.035Z,3.20
2022-12-03T07:34:40.575Z,3.10
2022-12-03T07:36:42.963Z,3.20
2022-12-03T07:38:48.130Z,3.20
2022-12-03T07:40:51.526Z,3.20
2022-12-03T07:42:53.968Z,3.20
2022-12-03T07:44:56.518Z,3.10
2022-12-03T07:46:59.330Z,4.60
2022-12-03T07:49:03.305Z,3.20
2022-12-03T07:51:14.237Z,3.10
2022-12-03T07:53:18.606Z,3.10
2022-12-03T07:55:25.593Z,3.10
2022-12-03T07:57:28.069Z,3.10
2022-12-03T07:59:30.576Z,3.20
2022-12-03T08:01:33.079Z,3.00
2022-12-03T08:03:35.641Z,3.10
2022-12-03T08:05:38.056Z,3.00
2022-12-03T08:07:40.465Z,3.10
2022-12-03T08:09:43.067Z,3.00
2022-12-03T08:11:50.752Z,3.00
2022-12-03T08:13:53.243Z,3.00
2022-12-03T08:15:56.163Z,3.10
2022-12-03T08:18:01.489Z,3.00
2022-12-03T08:20:15.096Z,3.90
2022-12-03T08:22:17.558Z,3.00
2022-12-03T08:24:21.417Z,3.00
2022-12-03T08:26:25.718Z,3.00
2022-12-03T08:28:31.148Z,3.00
2022-12-03T08:30:33.593Z,1.90
2022-12-03T08:32:36.233Z,3.00
2022-12-03T08:34:40.868Z,3.00
2022-12-03T08:36:43.597Z,3.00
2022-12-03T08:38:56.572Z,3.00
2022-12-03T08:40:59.315Z,1.80
2022-12-03T08:43:13.117Z,2.90
2022-12-03T08:45:40.754Z,4.10
2022-12-03T08:47:43.215Z,3.00
2022-12-03T08:49:51.506Z,3.00
2022-12-03T08:51:57.989Z,2.90
2022-12-03T08:54:08.629Z,3.00
2022-12-03T08:56:21.703Z,3.00
2022-12-03T08:58:27.567Z,3.00
2022-12-03T09:00:30.130Z,2.90
2022-12-03T09:02:38.325Z,3.00
2022-12-03T09:04:45.816Z,3.10
2022-12-03T09:06:48.345Z,2.90
2022-12-03T09:08:50.916Z,3.00
2022-12-03T09:10:53.251Z,3.00
2022-12-03T09:12:57.689Z,3.00
2022-12-03T09:15:00.124Z,3.00
2022-12-03T09:17:02.846Z,2.90
2022-12-03T09:19:07.965Z,3.00
2022-12-03T09:21:10.444Z,2.90
2022-12-03T09:23:12.854Z,2.90
2022-12-03T09:25:16.206Z,2.90
2022-12-03T09:27:22.871Z,2.90
2022-12-03T09:29:25.295Z,2.90
2022-12-03T09:31:28.529Z,2.90
2022-12-03T09:33:32.538Z,2.90
2022-12-03T09:35:37.698Z,2.80
2022-12-03T09:37:40.031Z,2.90
2022-12-03T09:39:42.518Z,2.90
2022-12-03T09:41:45.047Z,2.90
2022-12-03T09:44:03.960Z,2.90
2022-12-03T09:46:11.043Z,2.80
2022-12-03T09:48:15.333Z,2.80
2022-12-03T09:50:22.357Z,3.70
2022-12-03T09:52:29.105Z,2.70
2022-12-03T09:54:33.140Z,2.90
2022-12-03T09:56:37.888Z,2.80
2022-12-03T09:58:41.246Z,2.90
2022-12-03T10:00:47.221Z,2.80
2022-12-03T10:02:51.607Z,2.90
2022-12-03T10:04:54.301Z,2.90
2022-12-03T10:06:58.313Z,2.90
2022-12-03T10:09:03.719Z,2.90
2022-12-03T10:11:06.409Z,2.90
2022-12-03T10:13:13.303Z,4.50
2022-12-03T10:15:18.875Z,2.90
2022-12-03T10:17:21.581Z,2.90
2022-12-03T10:19:29.254Z,2.90
2022-12-03T10:21:37.126Z,2.80
2022-12-03T10:23:41.262Z,2.90
2022-12-03T10:25:55.294Z,2.90
2022-12-03T10:28:00.244Z,2.90
2022-12-03T10:30:06.454Z,2.90
2022-12-03T10:32:10.391Z,2.90
2022-12-03T10:34:12.934Z,2.90
2022-12-03T10:36:18.639Z,3.00
2022-12-03T10:38:22.506Z,2.90
2022-12-03T10:40:26.559Z,2.90
2022-12-03T10:42:33.830Z,2.90
2022-12-03T10:44:37.022Z,2.90
2022-12-03T10:46:39.541Z,2.90
2022-12-03T10:48:42.443Z,2.90
2022-12-03T10:50:49.113Z,2.90
2022-12-03T10:52:54.054Z,2.90
2022-12-03T10:54:57.601Z,2.90
2022-12-03T10:57:00.207Z,2.90
2022-12-03T10:59:05.312Z,2.90
2022-12-03T11:01:17.184Z,2.90
2022-12-03T11:03:22.398Z,2.90
2022-12-03T11:05:33.778Z,2.90
2022-12-03T11:07:39.579Z,3.00
2022-12-03T11:09:44.494Z,1.50
2022-12-03T11:11:47.624Z,2.90
2022-12-03T11:13:56.929Z,2.90
2022-12-03T11:16:03.984Z,2.90
2022-12-03T11:18:06.716Z,2.90
2022-12-03T11:20:14.021Z,2.90
2022-12-03T11:22:49.583Z,2.90
2022-12-03T11:25:37.651Z,3.00
2022-12-03T11:27:44.971Z,2.90
2022-12-03T11:30:01.117Z,2.90
2022-12-03T11:32:07.391Z,3.00
2022-12-03T11:34:48.311Z,3.00
2022-12-03T11:37:20.745Z,3.00
2022-12-03T11:39:53.549Z,3.00
2022-12-03T11:42:26.048Z,3.00
2022-12-03T11:44:31.309Z,3.00
2022-12-03T11:46:42.528Z,3.00
2022-12-03T11:48:49.475Z,3.00
2022-12-03T11:50:53.601Z,3.00
2022-12-03T11:53:00.090Z,3.00
2022-12-03T11:55:15.773Z,3.00
2022-12-03T11:57:32.028Z,3.00
2022-12-03T11:59:34.457Z,2.90
2022-12-03T12:01:39.374Z,2.90
2022-12-03T12:03:47.774Z,3.90
2022-12-03T12:06:02.318Z,2.90
2022-12-03T12:08:07.737Z,3.00
2022-12-03T12:10:11.573Z,4.50
2022-12-03T12:12:29.942Z,3.50
2022-12-03T12:14:32.384Z,2.90
2022-12-03T12:16:52.649Z,2.90
2022-12-03T12:18:57.707Z,2.90
2022-12-03T12:21:29.923Z,2.90
2022-12-03T12:23:32.678Z,2.90
2022-12-03T12:25:40.606Z,2.90
2022-12-03T12:27:45.674Z,2.90
2022-12-03T12:29:53.799Z,2.90
2022-12-03T12:32:13.281Z,2.90
2022-12-03T12:34:19.193Z,2.90
2022-12-03T12:36:22.311Z,3.00
2022-12-03T12:38:25.459Z,3.50
2022-12-03T12:40:29.720Z,2.90
2022-12-03T12:42:33.175Z,3.00
2022-12-03T12:44:35.454Z,4.10
2022-12-03T12:46:47.609Z,2.60
2022-12-03T12:48:50.310Z,2.90
2022-12-03T12:51:00.941Z,2.90
2022-12-03T12:53:11.918Z,2.90
2022-12-03T12:55:17.466Z,2.80
2022-12-03T12:57:22.508Z,2.80
2022-12-03T12:59:26.451Z,3.00
2022-12-03T13:01:31.620Z,2.70
2022-12-03T13:03:37.376Z,3.10
2022-12-03T13:05:43.113Z,2.70
2022-12-03T13:07:53.059Z,2.80
2022-12-03T13:09:56.881Z,2.80
2022-12-03T13:12:01.293Z,2.80
2022-12-03T13:14:15.069Z,3.20
2022-12-03T13:16:21.386Z,2.80
2022-12-03T13:18:38.247Z,4.20
2022-12-03T13:20:42.511Z,2.80
2022-12-03T13:22:50.461Z,2.70
2022-12-03T13:24:54.833Z,4.00
2022-12-03T13:26:57.103Z,2.70
2022-12-03T13:29:02.682Z,3.10
2022-12-03T13:31:23.210Z,2.70
2022-12-03T13:33:28.883Z,2.60
2022-12-03T13:35:35.342Z,2.70
2022-12-03T13:37:38.574Z,2.60
2022-12-03T13:39:46.464Z,2.60
2022-12-03T13:42:29.965Z,2.60
2022-12-03T13:44:33.810Z,2.60
2022-12-03T13:46:36.278Z,2.50
2022-12-03T13:48:43.303Z,2.60
2022-12-03T13:50:46.228Z,2.60
2022-12-03T13:52:48.669Z,2.50
2022-12-03T13:54:56.055Z,2.50
2022-12-03T13:57:00.310Z,2.80
2022-12-03T13:59:04.175Z,2.60
2022-12-03T14:01:06.839Z,2.80
2022-12-03T14:03:09.650Z,2.50
2022-12-03T14:05:12.035Z,2.60
2022-12-03T14:07:15.916Z,2.50
2022-12-03T14:09:18.641Z,2.50
2022-12-03T14:11:43.292Z,2.50
2022-12-03T14:13:45.737Z,2.50
2022-12-03T14:15:48.229Z,2.20
2022-12-03T14:17:50.960Z,2.40
2022-12-03T14:19:53.738Z,2.40
2022-12-03T14:21:56.338Z,2.50
2022-12-03T14:23:58.742Z,2.30
2022-12-03T14:26:01.238Z,2.40
2022-12-03T14:28:08.767Z,2.40
2022-12-03T14:30:12.389Z,2.30
2022-12-03T14:32:14.878Z,2.30
2022-12-03T14:34:17.383Z,2.30
2022-12-03T14:36:19.946Z,3.30
2022-12-03T14:38:22.440Z,0.70
2022-12-03T14:40:24.750Z,2.20
2022-12-03T14:42:27.190Z,2.20
2022-12-03T14:44:32.163Z,2.20
2022-12-03T14:46:34.551Z,3.20
2022-12-03T14:48:36.967Z,2.20
2022-12-03T14:50:39.598Z,2.20
2022-12-03T14:52:43.334Z,2.20
2022-12-03T14:54:45.968Z,2.10
2022-12-03T14:56:48.793Z,1.50
2022-12-03T14:58:51.983Z,2.10
2022-12-03T15:00:57.119Z,2.10
2022-12-03T15:02:59.568Z,2.10
2022-12-03T15:05:02.211Z,2.00
2022-12-03T15:07:05.105Z,2.10
2022-12-03T15:09:07.536Z,1.90
2022-12-03T15:11:10.206Z,3.30
2022-12-03T15:13:12.681Z,2.10
2022-12-03T15:15:15.276Z,3.40
2022-12-03T15:17:29.544Z,2.00
2022-12-03T15:19:34.320Z,2.00
2022-12-03T15:21:36.732Z,2.00
2022-12-03T15:23:39.188Z,1.40
2022-12-03T15:25:41.654Z,1.90
2022-12-03T15:27:44.163Z,1.80
2022-12-03T15:29:46.517Z,1.70
2022-12-03T15:31:49.133Z,3.50
2022-12-03T15:33:54.238Z,1.90
2022-12-03T15:35:56.605Z,1.90
2022-12-03T15:37:59.456Z,1.90
2022-12-03T15:40:01.863Z,1.90
2022-12-03T15:42:04.531Z,1.80
2022-12-03T15:44:07.076Z,1.90
2022-12-03T15:46:09.471Z,1.90
2022-12-03T15:48:13.893Z,1.60
2022-12-03T15:50:18.928Z,1.60
2022-12-03T15:52:21.388Z,1.90
2022-12-03T15:54:23.790Z,1.90
2022-12-03T15:56:26.194Z,1.90
2022-12-03T15:58:28.950Z,2.00
2022-12-03T16:00:32.075Z,2.00
2022-12-03T16:02:34.645Z,2.00
2022-12-03T16:04:36.995Z,2.00
2022-12-03T16:06:41.930Z,2.00
2022-12-03T16:08:44.328Z,2.00
2022-12-03T16:10:46.814Z,3.60
2022-12-03T16:12:49.371Z,2.00
2022-12-03T16:14:51.782Z,3.00
2022-12-03T16:16:55.242Z,1.90
2022-12-03T16:18:57.852Z,2.10
2022-12-03T16:21:00.767Z,1.90
2022-12-03T16:23:06.276Z,2.80
2022-12-03T16:25:09.170Z,3.70
2022-12-03T16:27:11.703Z,1.80
2022-12-03T16:29:15.117Z,1.80
2022-12-03T16:31:19.092Z,1.80
2022-12-03T16:33:27.303Z,1.70
2022-12-03T16:35:30.123Z,1.80
2022-12-03T16:37:32.900Z,3.10
2022-12-03T16:39:38.283Z,1.80
2022-12-03T16:41:40.640Z,1.70
2022-12-03T16:43:46.092Z,1.70
2022-12-03T16:46:02.303Z,1.70
2022-12-03T16:48:05.295Z,1.70
2022-12-03T16:50:10.685Z,1.70
2022-12-03T16:52:16.632Z,1.70
2022-12-03T16:54:19.084Z,1.70
2022-12-03T16:56:24.121Z,1.70
2022-12-03T16:58:26.814Z,1.70
2022-12-03T17:00:31.981Z,1.70
2022-12-03T17:02:35.180Z,1.70
2022-12-03T17:04:37.782Z,1.70
2022-12-03T17:06:40.235Z,1.80
2022-12-03T17:08:48.798Z,1.70
2022-12-03T17:10:52.012Z,1.90
2022-12-03T17:13:12.725Z,1.50
2022-12-03T17:15:15.383Z,3.40
2022-12-03T17:17:17.836Z,1.70
2022-12-03T17:19:20.555Z,1.70
2022-12-03T17:21:23.371Z,1.70
2022-12-03T17:23:25.744Z,1.70
2022-12-03T17:25:28.759Z,1.60
2022-12-03T17:27:34.018Z,1.60
2022-12-03T17:29:42.358Z,1.50
2022-12-03T17:31:44.904Z,1.60
2022-12-03T17:33:47.354Z,1.50
2022-12-03T17:35:50.014Z,1.50
2022-12-03T17:37:52.351Z,1.50
2022-12-03T17:39:54.949Z,1.50
2022-12-03T17:41:57.483Z,1.40
2022-12-03T17:43:59.856Z,1.40
2022-12-03T17:46:06.768Z,1.40
2022-12-03T17:48:09.570Z,1.40
2022-12-03T17:50:12.521Z,1.30
2022-12-03T17:52:14.847Z,1.30
2022-12-03T17:54:17.301Z,1.30
2022-12-03T17:56:19.710Z,1.30
2022-12-03T17:58:22.174Z,1.20
2022-12-03T18:00:24.611Z,3.00
2022-12-03T18:02:29.605Z,2.50
2022-12-03T18:04:32.813Z,1.10
2022-12-03T18:06:35.257Z,1.10
2022-12-03T18:08:37.601Z,2.30
2022-12-03T18:10:39.963Z,1.10
2022-12-03T18:12:42.370Z,1.10
2022-12-03T18:14:44.903Z,1.10
2022-12-03T18:16:47.258Z,1.10
2022-12-03T18:18:56.368Z,1.20
2022-12-03T18:21:02.224Z,1.20
2022-12-03T18:23:04.755Z,1.90
2022-12-03T18:25:08.049Z,1.30
2022-12-03T18:27:10.582Z,1.40
2022-12-03T18:29:13.034Z,1.40
2022-12-03T18:31:17.533Z,1.50
2022-12-03T18:33:21.479Z,3.10
2022-12-03T18:35:26.592Z,1.60
2022-12-03T18:37:31.643Z,1.60
2022-12-03T18:39:36.046Z,1.60
2022-12-03T18:41:40.442Z,1.70
2022-12-03T18:43:43.238Z,1.70
2022-12-03T18:45:45.608Z,1.70
2022-12-03T18:47:48.107Z,1.70
2022-12-03T18:49:50.871Z,1.70
2022-12-03T18:51:59.321Z,1.70
2022-12-03T18:54:02.085Z,1.70
2022-12-03T18:56:04.706Z,1.70
2022-12-03T18:58:07.670Z,1.70
2022-12-03T19:00:13.661Z,1.70
2022-12-03T19:02:53.836Z,1.70
2022-12-03T19:04:41.366Z,1.80
2022-12-03T19:06:43.797Z,1.80
2022-12-03T19:08:54.065Z,1.70
2022-12-03T19:10:57.775Z,1.80
2022-12-03T19:13:00.334Z,1.80
2022-12-03T19:15:04.010Z,2.00
2022-12-03T19:17:06.588Z,1.80
2022-12-03T19:19:10.058Z,1.80
2022-12-03T19:21:14.681Z,1.80
2022-12-03T19:23:17.173Z,1.80
2022-12-03T19:25:22.377Z,1.80
2022-12-03T19:27:24.820Z,1.80
2022-12-03T19:29:27.244Z,1.80
2022-12-03T19:31:33.436Z,1.80
2022-12-03T19:33:36.604Z,1.80
2022-12-03T19:35:39.815Z,1.80
2022-12-03T19:37:42.307Z,1.80
2022-12-03T19:39:44.739Z,1.80
2022-12-03T19:41:49.900Z,1.80
2022-12-03T19:43:54.607Z,1.80
2022-12-03T19:45:56.992Z,1.80
2022-12-03T19:48:00.439Z,1.80
2022-12-03T19:50:03.217Z,1.70
2022-12-03T19:52:05.702Z,1.70
2022-12-03T19:54:11.383Z,1.80
2022-12-03T19:56:15.444Z,3.00
2022-12-03T19:58:20.700Z,1.80
2022-12-03T20:00:23.379Z,1.80
2022-12-03T20:02:26.030Z,1.80
2022-12-03T20:04:28.505Z,1.80
2022-12-03T20:06:35.731Z,1.80
2022-12-03T20:08:38.639Z,1.70
2022-12-03T20:10:42.717Z,1.80
2022-12-03T20:12:45.786Z,1.20
2022-12-03T20:14:51.770Z,1.70
2022-12-03T20:16:54.550Z,1.90
2022-12-03T20:19:02.563Z,1.60
2022-12-03T20:21:05.433Z,1.80
2022-12-03T20:23:07.828Z,1.70
2022-12-03T20:25:10.588Z,1.70
2022-12-03T20:27:22.613Z,1.70
2022-12-03T20:29:25.657Z,1.70
2022-12-03T20:31:32.007Z,1.50
2022-12-03T20:33:34.701Z,1.60
2022-12-03T20:35:37.142Z,1.60
2022-12-03T20:37:39.543Z,1.60
2022-12-03T20:39:42.111Z,1.60
2022-12-03T20:41:44.600Z,1.60
2022-12-03T20:43:47.220Z,1.60
2022-12-03T20:45:49.667Z,3.30
2022-12-03T20:47:57.597Z,1.60
2022-12-03T20:49:59.919Z,1.60
2022-12-03T20:52:04.589Z,1.60
2022-12-03T20:54:07.370Z,2.90
2022-12-03T20:56:10.530Z,1.40
2022-12-03T20:58:12.984Z,2.50
2022-12-03T21:00:16.313Z,1.60
2022-12-03T21:02:18.779Z,1.60
2022-12-03T21:04:25.078Z,1.60
2022-12-03T21:06:29.969Z,1.60
2022-12-03T21:08:41.158Z,1.60
2022-12-03T21:10:46.769Z,1.60
2022-12-03T21:12:49.224Z,1.60
2022-12-03T21:14:51.690Z,1.60
2022-12-03T21:17:11.973Z,1.60
2022-12-03T21:19:14.562Z,1.50
2022-12-03T21:21:20.715Z,3.70
2022-12-03T21:23:23.272Z,1.50
2022-12-03T21:25:25.697Z,3.10
2022-12-03T21:27:28.211Z,1.50
2022-12-03T21:29:31.106Z,1.40
2022-12-03T21:31:35.515Z,1.60
2022-12-03T21:33:37.989Z,1.40
2022-12-03T21:35:41.912Z,1.80
2022-12-03T21:37:47.021Z,1.40
2022-12-03T21:39:49.999Z,1.30
2022-12-03T21:42:22.362Z,1.30
2022-12-03T21:44:17.590Z,1.40
2022-12-03T21:47:09.508Z,1.40
2022-12-03T21:48:42.505Z,1.20
2022-12-03T21:50:45.600Z,1.30
2022-12-03T21:52:51.411Z,3.30
2022-12-03T21:54:54.439Z,2.70
2022-12-03T21:56:59.224Z,1.00
2022-12-03T21:59:01.614Z,1.30
2022-12-03T22:01:11.378Z,2.40
2022-12-03T22:03:14.136Z,1.20
2022-12-03T22:05:16.706Z,1.30
2022-12-03T22:07:19.096Z,1.30
2022-12-03T22:09:26.821Z,1.20
2022-12-03T22:11:29.450Z,1.30
2022-12-03T22:13:31.936Z,1.30
2022-12-03T22:15:34.399Z,2.90
2022-12-03T22:17:37.691Z,1.20
2022-12-03T22:19:40.240Z,1.20
2022-12-03T22:21:42.670Z,1.20
2022-12-03T22:23:45.383Z,1.30
2022-12-03T22:25:57.751Z,1.30
2022-12-03T22:28:00.256Z,1.20
2022-12-03T22:30:03.353Z,1.10
2022-12-03T22:32:06.249Z,0.10
2022-12-03T22:34:08.683Z,1.30
2022-12-03T22:36:18.291Z,1.20
2022-12-03T22:38:22.219Z,1.20
2022-12-03T22:40:24.742Z,1.30
2022-12-03T22:42:29.713Z,1.20
2022-12-03T22:44:32.343Z,2.30
2022-12-03T22:46:35.526Z,1.30
2022-12-03T22:48:38.799Z,1.30
2022-12-03T22:50:43.248Z,1.30
2022-12-03T22:52:45.347Z,1.30
2022-12-03T22:54:47.716Z,1.30
2022-12-03T22:56:52.445Z,1.20
2022-12-03T22:58:57.981Z,2.90
2022-12-03T23:01:03.057Z,1.20
2022-12-03T23:03:06.948Z,1.20
2022-12-03T23:05:09.513Z,2.90
2022-12-03T23:07:11.989Z,1.20
2022-12-03T23:09:14.797Z,1.20
2022-12-03T23:11:18.361Z,1.20
2022-12-03T23:13:20.931Z,1.20
2022-12-03T23:15:26.064Z,1.20
2022-12-03T23:17:29.342Z,1.20
2022-12-03T23:19:31.760Z,1.20
2022-12-03T23:21:35.566Z,1.10
2022-12-03T23:23:38.179Z,1.10
2022-12-03T23:25:41.090Z,1.10
2022-12-03T23:27:44.350Z,1.00
2022-12-03T23:29:46.665Z,1.20
2022-12-03T23:31:51.847Z,1.00
2022-12-03T23:33:54.686Z,1.00
2022-12-03T23:35:57.192Z,1.10
2022-12-03T23:38:00.093Z,1.20
2022-12-03T23:40:02.853Z,2.10
2022-12-03T23:42:05.396Z,0.70
2022-12-03T23:44:07.805Z,1.00
2022-12-03T23:46:12.135Z,1.00
2022-12-03T23:48:17.134Z,1.50
2022-12-03T23:50:19.720Z,1.10
2022-12-03T23:52:22.284Z,2.90
2022-12-03T23:54:27.618Z,1.10
2022-12-03T23:56:31.087Z,1.00
2022-12-03T23:58:34.124Z,1.10
